Flight Number: EUR2243 Duration: 1:15
Departure: Munich Int'l (EDDM) at 07:30 Distance: 393 Nm
Arrival: Roma Fiumicino (LIRF) at 08:45 Equipment: A321

Weather Information
Munchen, Germany (EDDM) 48-21N 011-47E Nov 19, 2018 - 05:20 PM EST / 2018.11.19 2220 UTC
Wind: from the E (080 degrees) at 14 MPH (12 KT):0
Visibility: greater than 7 mile(s):0
Sky conditions: overcast Temperature: 32 F (0 C)
Windchill: 21 F (-6 C):1 Dew Point: 26 F (-3 C) Relative Humidity: 80% Pressure (altimeter): 29.77 in. Hg (1008 hPa)
ob: EDDM 192220Z 08012KT 9999 OVC012 M00/M03 Q1008 NOSIG cycle: 22
Sunrise: 06:30 Sunset: 15:25 (UTC)

Roma Fiumicino, Italy (LIRF) 41-48N 012-14E 3M Nov 19, 2018 - 05:20 PM EST / 2018.11.19 2220 UTC
Wind: from the E (090 degrees) at 12 MPH (10 KT) (direction variable):0
Visibility: 3 mile(s):0
Sky conditions: mostly cloudy Weather: rain with thunder; Cumulonimbus clouds observed Temperature: 53 F (12 C) Dew Point: 51 F (11 C) Relative Humidity: 93% Pressure (altimeter): 29.47 in. Hg (0998 hPa)
ob: LIRF 192220Z 09010KT 060V130 5000 TSRA FEW008 SCT025CB BKN030 12/11 Q0998 NOSIG cycle: 22
Sunrise: 06:09 Sunset: 15:43 (UTC)

TAF:2018/11/19 18:26 TAF LIRF 191700Z 1918/2024 03016KT 9999 SCT030 TEMPO 1918/1919 RA TEMPO 1919/1924 4000 TSRA BECMG 1919/1922 19018KT TEMPO 2006/2011 4000 TSRA BECMG 2012/2014 29014KT

Previous Pireps for this route
Date Aircraft Flight time Fuel used Landing rate On time
2012-08-12MD-8101.47-1-220Yes
2012-10-14MD-8101.499572-308Yes
2012-12-20MD-8101.299127-304Yes
2013-01-14MD-811.1541420No
2013-01-22MD-811.139030.70No
2013-01-26B1900D02.151792-258Charter
2013-03-03MD-811.0578580No
2013-11-02A3211.17118880No
2014-05-06A3211.48160000No
2014-11-24A32101.269509-186Charter
2015-02-22B73701.238960-382Charter
2015-03-21A3211.2474580Charter
2015-04-05A32101.2310304-443Yes
2015-04-19A32101.248876-227Yes
2015-04-25A32101.217750-321Yes
2015-05-02B73701.4111534-570Charter
2015-05-07MD-811.1592780Yes
2015-05-08A32101.29-6380-210Yes
2015-05-15A32101.411741-479Yes
2015-05-21MD-811.2389570Yes
2015-12-15A32101.239937-32Charter
2016-05-21MD-8101.2710118-169Yes
2016-08-27A32101.187520-324Yes
2017-01-11B7372.1080000Charter
2017-01-13B73702.148792-6950Charter
(pireps marked green are flown by you)

Route map